Tiempo atmosférico en la estación meteorológica de Pontons, Barcelona (630 m.)



Fecha
DESCASC
Temp. máxima en grados centígrados (hora)
DESCASC
Temp. mínima en grados centígrados (hora)
DESCASC
Temp. media en grados centígrados
DESCASC
Racha de viento máxima en m/sg (hora)
DESCASC
Velocidad máxima media en intervalos de 10 minutos(hora)
DESCASC
Precipitaciones diarias en mm
DESCASC
Precipitaciones de 00:00 a 06:00 en mm
DESCASC
Precipitaciones de 06:00 a 12:00 en mm
DESCASC
Precipitaciones de 12:00 a 18:00 en mm
DESCASC
Precipitaciones de 18:00 a 24:00 en mm
DESCASC
05-12-2019 9 (21:40) 7.3 (00:10) 8.2 10 (04:00) 5 (12:10) 11.4 4.8 5.8 0.8 0
04-12-2019 9 (02:40) 7.3 (18:30) 8.2 14.72 (19:00) 8.89 (19:00) 59 0 12.4 28 18.6
03-12-2019 8.7 (14:10) 2 (00:00) 5.3 9.44 (22:20) 5.56 (22:20) 0 0 0 0 0
02-12-2019 13.8 (15:10) 2.2 (00:00) 8 5.83 (15:20) 3.33 (15:30) 3.6 3.6 0 0 0
01-12-2019 12.7 (15:50) 3.2 (00:00) 7.9 14.17 (03:00) 8.06 (03:00) 0 0 0 0 0
30-11-2019 17.3 (15:10) 4 (00:00) 10.6 8.33 (11:00) 5.56 (12:10) 0 0 0 0 0
29-11-2019 16 (14:00) 4.5 (00:00) 10.3 18.61 (06:10) 10.28 (01:40) 0 0 0 0 0
28-11-2019 14.7 (14:00) 9.3 (00:00) 12 16.94 (07:20) 12.22 (07:40) 0 0 0 0 0
27-11-2019 14.5 (03:00) 9.3 (00:00) 11.9 23.89 (05:50) 15.28 (05:50) 0 0 0 0 0
26-11-2019 15.9 (14:50) 6.5 (00:00) 11.2 11.39 (11:10) 7.78 (11:10) 0 0 0 0 0
25-11-2019 15.6 (15:00) 6.1 (00:00) 10.9 14.72 (06:10) 10 (07:00) 0 0 0 0 0
24-11-2019 12 (15:30) 5.3 (00:00) 8.7 18.61 (00:30) 13.06 (01:40) 0 0 0 0 0
23-11-2019 11.1 (00:00) 5.9 (00:00) 8.5 24.44 (12:50) 17.22 (14:00) 1 1 0 0 0
22-11-2019 11.2 (22:40) 3.5 (00:00) 7.3 16.11 (23:10) 7.5 (23:10) 32.6 0 2 0.4 30.2
21-11-2019 11.7 (14:20) 0.7 (00:00) 6.2 11.39 (11:30) 7.5 (11:40) 0 0 0 0 0
20-11-2019 9.4 (14:30) -1.1 (-00:0) 4.1 7.22 (11:40) 4.72 (11:50) 0 0 0 0 0
19-11-2019 12.3 (15:10) -0.8 (-00:0) 5.8 8.33 (05:20) 5 (05:30) 0 0 0 0 0
18-11-2019 12 (13:20) 2.8 (00:00) 7.4 9.72 (03:20) 6.67 (15:20) 0 0 0 0 0
17-11-2019 9.7 (15:30) 3.1 (02:10) 6.4 18.89 (11:40) 12.22 (11:30) 0 0 0 0 0
16-11-2019 9 (14:20) -1.7 (06:20) 3.6 20.56 (20:00) 13.89 (20:00) 0 0 0 0 0
15-11-2019 7.6 (13:20) 0.6 (01:50) 4.1 14.72 (12:50) 8.89 (13:00) 0 0 0 0 0

Gráficas

Temp. máximas Temp. mínimas Temp. medias Precipitaciones Rachas de viento máximas Velocidades máximas media en intervalos de 10 minutos

Datos horarios

Fecha y hora oficial Temperatura (ºC) Velocidad del viento (km/h) Dirección del viento Racha (km/h) Dirección de racha Precipitación (mm) Presión (hPa) Tendencia (hPa) Humedad (%)
2019-12-05 23:00:00 7.9 4 Este 12 Nordeste 0 -- -- 84
2019-12-05 22:00:00 8.8 6 Nordeste 12 Nordeste 0 -- -- 80
2019-12-05 21:00:00 8.2 2 Sudoeste 6 Este 0 -- -- 84
2019-12-05 20:00:00 8.3 5 Nordeste 12 Nordeste 0 -- -- 85
2019-12-05 19:00:00 7.7 3 Este 7 Este 0 -- -- 87
2019-12-05 18:00:00 8 0 Calma 15 Este 0 -- -- 85
2019-12-05 17:00:00 8.4 9 Este 23 Este 0 -- -- 83
2019-12-05 16:00:00 8.5 9 Nordeste 30 Este 0 -- -- 81
2019-12-05 15:00:00 8.1 13 Nordeste 30 Nordeste 0.4 -- -- 83
2019-12-05 14:00:00 8.5 15 Nordeste 34 Este 0.2 -- -- 80
2019-12-05 13:00:00 8.3 17 Nordeste 35 Nordeste 0.2 -- -- 80
2019-12-05 12:00:00 8.8 13 Nordeste 29 Nordeste 0.2 -- -- 78
2019-12-05 11:00:00 8.3 14 Nordeste 31 Nordeste 0.4 -- -- 81
2019-12-05 10:00:00 8.2 12 Nordeste 23 Este 0.8 -- -- 83
2019-12-05 09:00:00 7.8 10 Nordeste 23 Nordeste 1.2 -- -- 85
2019-12-05 08:00:00 7.8 9 Nordeste 21 Nordeste 1.4 -- -- 86
2019-12-05 07:00:00 7.6 8 Este 23 Nordeste 1.8 -- -- 87
2019-12-05 06:00:00 7.6 10 Este 34 Nordeste 0.2 -- -- 86
2019-12-05 05:00:00 7.6 10 Nordeste 24 Este 0 -- -- 86
2019-12-05 04:00:00 7.5 14 Este 36 Nordeste 0.8 -- -- 87
2019-12-05 03:00:00 7.7 9 Este 27 Nordeste 1.4 -- -- 86
2019-12-05 02:00:00 7.8 9 Nordeste 28 Nordeste 0.6 -- -- 85
2019-12-05 01:00:00 7.4 6 Norte 23 Nordeste 1.8 -- -- 87
2019-12-05 00:00:00 7.4 17 Nordeste 42 Nordeste 3.6 -- -- 86
2019-12-04 23:00:00 7.6 23 Nordeste 45 Nordeste 4 -- -- 83
2019-12-04 22:00:00 7.8 26 Nordeste 45 Este 1.4 -- -- 85
2019-12-04 21:00:00 7.8 19 Nordeste 53 Nordeste 1 -- -- 86
2019-12-04 20:00:00 8 32 Nordeste 50 Nordeste 3.2 -- -- 87
2019-12-04 19:00:00 8.2 32 Nordeste 53 Nordeste 5.4 -- -- 87
2019-12-04 18:00:00 7.4 17 Nordeste 32 Este 4.6 -- -- 88
2019-12-04 17:00:00 7.4 17 Nordeste 35 Nordeste 6.6 -- -- 89
2019-12-04 16:00:00 7.6 21 Nordeste 42 Este 7.6 -- -- 88
2019-12-04 15:00:00 7.7 27 Nordeste 43 Nordeste 4.6 -- -- 88
2019-12-04 14:00:00 7.8 20 Nordeste 41 Este 1.4 -- -- 89
2019-12-04 13:00:00 7.9 19 Este 37 Nordeste 3.2 -- -- 89
2019-12-04 12:00:00 7.8 22 Este 44 Nordeste 2.2 -- -- 88
2019-12-04 11:00:00 7.7 24 Este 39 Nordeste 3 -- -- 88
2019-12-04 10:00:00 7.7 16 Nordeste 40 Nordeste 5.2 -- -- 87
2019-12-04 09:00:00 7.6 26 Este 49 Nordeste 1.4 -- -- 86
2019-12-04 08:00:00 8.1 23 Este 41 Nordeste 0.6 -- -- 82
2019-12-04 07:00:00 8.4 26 Este 44 Nordeste 0 -- -- 79
2019-12-04 06:00:00 8.8 25 Nordeste 44 Nordeste 0 -- -- 76
2019-12-04 05:00:00 8.8 19 Nordeste 43 Este 0 -- -- 75
2019-12-04 04:00:00 8.9 24 Nordeste 46 Este 0 -- -- 74
2019-12-04 03:00:00 9 22 Nordeste 37 Este 0 -- -- 73
2019-12-04 02:00:00 8.8 21 Nordeste 35 Este 0 -- -- 73
2019-12-04 01:00:00 8.6 17 Nordeste 35 Este 0 -- -- 73
2019-12-04 00:00:00 8.3 15 Este 28 Este 0 -- -- 74
2019-12-03 23:00:00 8 9 Este 34 Este 0 -- -- 73
2019-12-03 22:00:00 8.5 17 Este 30 Este 0 -- -- 71
2019-12-03 21:00:00 8.2 12 Este 23 Este 0 -- -- 71
2019-12-03 20:00:00 7.6 12 Este 26 Este 0 -- -- 73
2019-12-03 19:00:00 7.5 12 Este 23 Nordeste 0 -- -- 73
2019-12-03 18:00:00 7.4 9 Este 21 Este 0 -- -- 72
2019-12-03 17:00:00 7.5 6 Este 15 Este 0 -- -- 68
2019-12-03 16:00:00 8 10 Este 24 Este 0 -- -- 68
2019-12-03 15:00:00 8.3 10 Este 20 Nordeste 0 -- -- 67
2019-12-03 14:00:00 8.1 6 Este 18 Este 0 -- -- 64
2019-12-03 13:00:00 7.1 10 Este 15 Este 0 -- -- 72
2019-12-03 12:00:00 6.3 3 Nordeste 10 Noroeste 0 -- -- 76
2019-12-03 11:00:00 4.1 7 Noroeste 14 Noroeste 0 -- -- 83
2019-12-03 10:00:00 3.1 7 Noroeste 14 Noroeste 0 -- -- 86
2019-12-03 09:00:00 2 7 Norte 15 Norte 0 -- -- 87
2019-12-03 08:00:00 2 5 Norte 19 Norte 0 -- -- 86
2019-12-03 07:00:00 2.1 7 Norte 21 Noroeste 0 -- -- 85
2019-12-03 06:00:00 2.5 8 Norte 18 Noroeste 0 -- -- 84
2019-12-03 05:00:00 2.8 7 Oeste 17 Oeste 0 -- -- 84
2019-12-03 04:00:00 3.3 10 Oeste 27 Oeste 0 -- -- 82
2019-12-03 03:00:00 3.7 8 Oeste 19 Noroeste 0 -- -- 82
2019-12-03 02:00:00 5.2 12 Noroeste 18 Sudoeste 0 -- -- 79
2019-12-03 01:00:00 5 9 Oeste 15 Oeste 0 -- -- 80
2019-12-03 00:00:00 2.2 6 Noroeste 8 Noroeste 0 -- -- 85
2019-12-02 23:00:00 3.2 6 Noroeste 10 Noroeste 0 -- -- 85
2019-12-02 22:00:00 5 3 Nordeste 10 Este 0 -- -- 82
2019-12-02 21:00:00 6.3 5 Sur 18 Oeste 0 -- -- 74
2019-12-02 20:00:00 6.5 6 Oeste 13 Oeste 0 -- -- 61
2019-12-02 19:00:00 6.3 6 Oeste 14 Sudoeste 0 -- -- 66
2019-12-02 18:00:00 7 9 Oeste 15 Oeste 0 -- -- 72
2019-12-02 17:00:00 9.7 8 Sudoeste 18 Noroeste 0 -- -- 60
2019-12-02 16:00:00 12.4 10 Noroeste 21 Noroeste 0 -- -- 45
2019-12-02 15:00:00 13 8 Noroeste 17 Noroeste 0 -- -- 43
2019-12-02 14:00:00 10.7 3 Noroeste 20 Noroeste 0 -- -- 56
2019-12-02 13:00:00 12.5 10 Noroeste 14 Noroeste 0 -- -- 48
2019-12-02 12:00:00 11.6 2 Sudoeste 12 Noroeste 0 -- -- 58
2019-12-02 11:00:00 9.8 6 Noroeste 9 Noroeste 0 -- -- 60
2019-12-02 10:00:00 8.2 3 Oeste 10 Oeste 0 -- -- 77
2019-12-02 09:00:00 6.2 4 Noroeste 10 Oeste 0 -- -- 85
2019-12-02 08:00:00 6.3 7 Noroeste 9 Oeste 0 -- -- 88
2019-12-02 07:00:00 6.1 6 Oeste 9 Oeste 0 -- -- 89
2019-12-02 06:00:00 6 5 Noroeste 7 Noroeste 0 -- -- 89
2019-12-02 05:00:00 6.1 0 Calma 8 Noroeste 0 -- -- 88
2019-12-02 04:00:00 6.6 6 Noroeste 11 Noroeste 0 -- -- 88
2019-12-02 03:00:00 7 8 Noroeste 10 Noroeste 0.2 -- -- 88
2019-12-02 02:00:00 6.5 3 Oeste 5 Oeste 2.4 -- -- 88
2019-12-02 01:00:00 5.3 2 Oeste -- -- 1 -- -- 84
2019-12-02 00:00:00 5.3 0 Calma 5 Noroeste 0 -- -- 84
2019-12-01 23:00:00 5.1 0 Calma 6 Noroeste 0 -- -- 82
2019-12-01 22:00:00 5.3 4 Noroeste 6 Noroeste 0 -- -- 83
2019-12-01 21:00:00 4.3 5 Noroeste 10 Noroeste 0 -- -- 83
2019-12-01 20:00:00 3.6 7 Noroeste 9 Noroeste 0 -- -- 83
2019-12-01 19:00:00 4.4 5 Noroeste 9 Noroeste 0 -- -- 77
2019-12-01 18:00:00 6.5 5 Noroeste 7 Noroeste 0 -- -- 73
2019-12-01 17:00:00 10.1 3 Noroeste 11 Noroeste 0 -- -- 60
2019-12-01 16:00:00 12.3 8 Oeste 16 Noroeste 0 -- -- 53
2019-12-01 15:00:00 11.7 12 Oeste 22 Oeste 0 -- -- 51
2019-12-01 14:00:00 11.6 10 Oeste 22 Oeste 0 -- -- 54
2019-12-01 13:00:00 12.2 10 Noroeste 19 Noroeste 0 -- -- 52
2019-12-01 12:00:00 10.1 10 Noroeste 17 Noroeste 0 -- -- 61
2019-12-01 11:00:00 9.5 8 Noroeste 18 Noroeste 0 -- -- 63
2019-12-01 10:00:00 9 10 Oeste 18 Noroeste 0 -- -- 63
2019-12-01 09:00:00 8.4 2 Noroeste 17 Oeste 0 -- -- 65
2019-12-01 08:00:00 8.4 13 Oeste 31 Noroeste 0 -- -- 63
2019-12-01 07:00:00 9 12 Noroeste 32 Noroeste 0 -- -- 59
2019-12-01 06:00:00 9.4 16 Noroeste 28 Oeste 0 -- -- 58
2019-12-01 05:00:00 9.6 17 Noroeste 42 Noroeste 0 -- -- 63
2019-12-01 04:00:00 9.7 21 Noroeste 51 Noroeste 0 -- -- 65
2019-12-01 03:00:00 10 29 Noroeste 51 Noroeste 0 -- -- 71
2019-12-01 02:00:00 10.6 25 Oeste 41 Oeste 0 -- -- 79
2019-12-01 01:00:00 8.2 9 Noroeste 14 Oeste 0 -- -- 88
2019-12-01 00:00:00 7.8 8 Noroeste 12 Noroeste 0 -- -- 86
2019-11-30 23:00:00 8.8 6 Noroeste 13 Noroeste 0 -- -- 82
2019-11-30 22:00:00 8.8 10 Noroeste 14 Noroeste 0 -- -- 88
2019-11-30 21:00:00 9 8 Noroeste 16 Noroeste 0 -- -- 89
2019-11-30 20:00:00 9.5 10 Noroeste 16 Noroeste 0 -- -- 88
2019-11-30 19:00:00 9.9 8 Noroeste 13 Noroeste 0 -- -- 85
2019-11-30 18:00:00 11.2 6 Oeste 12 Noroeste 0 -- -- 79
2019-11-30 17:00:00 13.7 5 Oeste 10 Sudoeste 0 -- -- 67
2019-11-30 16:00:00 16.8 10 Oeste 18 Oeste 0 -- -- 56
2019-11-30 15:00:00 17 12 Oeste 19 Oeste 0 -- -- 53
2019-11-30 14:00:00 15.6 15 Oeste 25 Oeste 0 -- -- 58
2019-11-30 13:00:00 15.5 14 Oeste 28 Oeste 0 -- -- 57
2019-11-30 12:00:00 14.4 17 Oeste 30 Oeste 0 -- -- 61
2019-11-30 11:00:00 13.2 20 Oeste 30 Oeste 0 -- -- 67
2019-11-30 10:00:00 11.5 14 Noroeste 20 Noroeste 0 -- -- 75
2019-11-30 09:00:00 7.8 7 Noroeste 12 Noroeste 0 -- -- 82
2019-11-30 08:00:00 5.5 6 Noroeste 10 Noroeste 0 -- -- 86
2019-11-30 07:00:00 6.3 8 Noroeste 12 Noroeste 0 -- -- 83
2019-11-30 06:00:00 4.1 6 Noroeste 10 Noroeste 0 -- -- 86
2019-11-30 05:00:00 4.5 8 Noroeste 11 Noroeste 0 -- -- 88
2019-11-30 04:00:00 4.4 5 Noroeste 8 Noroeste 0 -- -- 88
2019-11-30 03:00:00 5.3 5 Noroeste 10 Noroeste 0 -- -- 87
2019-11-30 02:00:00 4.1 6 Noroeste 9 Noroeste 0 -- -- 86
2019-11-30 01:00:00 4.4 7 Noroeste 9 Noroeste 0 -- -- 89
2019-11-30 00:00:00 4.9 6 Noroeste 8 Noroeste 0 -- -- 85
2019-11-29 23:00:00 5.1 5 Noroeste 10 Noroeste 0 -- -- 83
2019-11-29 22:00:00 6.2 8 Noroeste 12 Noroeste 0 -- -- 80
2019-11-29 21:00:00 5.4 6 Noroeste 9 Noroeste 0 -- -- 82
2019-11-29 20:00:00 6.5 4 Noroeste 10 Noroeste 0 -- -- 77
2019-11-29 19:00:00 8.3 4 Noroeste 13 Oeste 0 -- -- 73
2019-11-29 18:00:00 11.4 11 Noroeste 25 Noroeste 0 -- -- 61
2019-11-29 17:00:00 12.9 11 Oeste 31 Oeste 0 -- -- 57
2019-11-29 16:00:00 14.3 17 Oeste 32 Oeste 0 -- -- 52
2019-11-29 15:00:00 14.8 14 Oeste 37 Oeste 0 -- -- 53
2019-11-29 14:00:00 16 15 Noroeste 35 Oeste 0 -- -- 49
2019-11-29 13:00:00 14.7 9 Noroeste 34 Noroeste 0 -- -- 56
2019-11-29 12:00:00 14 27 Noroeste 42 Noroeste 0 -- -- 59
2019-11-29 11:00:00 12.7 22 Noroeste 37 Oeste 0 -- -- 66
2019-11-29 10:00:00 12 17 Noroeste 46 Noroeste 0 -- -- 71
2019-11-29 09:00:00 11.9 26 Noroeste 54 Noroeste 0 -- -- 69
2019-11-29 08:00:00 12.1 22 Noroeste 60 Noroeste 0 -- -- 67
2019-11-29 07:00:00 12.4 29 Noroeste 67 Noroeste 0 -- -- 65
2019-11-29 06:00:00 12.2 31 Noroeste 57 Noroeste 0 -- -- 65
2019-11-29 05:00:00 12.3 30 Noroeste 57 Noroeste 0 -- -- 63
2019-11-29 04:00:00 12.3 32 Noroeste 54 Noroeste 0 -- -- 62
2019-11-29 03:00:00 11.7 30 Noroeste 56 Noroeste 0 -- -- 62
2019-11-29 02:00:00 11.5 31 Noroeste 63 Noroeste 0 -- -- 60
2019-11-29 01:00:00 11.3 28 Noroeste 48 Noroeste 0 -- -- 60
2019-11-29 00:00:00 11.4 26 Noroeste 47 Noroeste 0 -- -- 58
2019-11-28 23:00:00 11.7 31 Noroeste 47 Noroeste 0 -- -- 57
2019-11-28 22:00:00 12.1 21 Noroeste 42 Noroeste 0 -- -- 57
2019-11-28 21:00:00 11.8 11 Oeste 23 Noroeste 0 -- -- 62
2019-11-28 20:00:00 10.3 10 Noroeste 14 Noroeste 0 -- -- 69
2019-11-28 19:00:00 10.4 6 Oeste 13 Oeste 0 -- -- 69
2019-11-28 18:00:00 11.8 9 Oeste 33 Oeste 0 -- -- 62
2019-11-28 17:00:00 12.8 25 Noroeste 47 Noroeste 0 -- -- 59
2019-11-28 16:00:00 13.3 31 Noroeste 55 Oeste 0 -- -- 57
2019-11-28 15:00:00 13.7 26 Oeste 44 Oeste 0 -- -- 56
2019-11-28 14:00:00 14.7 24 Noroeste 45 Oeste 0 -- -- 51
2019-11-28 13:00:00 14.1 31 Noroeste 53 Noroeste 0 -- -- 51
2019-11-28 12:00:00 13.2 25 Oeste 41 Oeste 0 -- -- 56
2019-11-28 11:00:00 12.4 28 Noroeste 49 Noroeste 0 -- -- 59
2019-11-28 10:00:00 11.6 27 Noroeste 57 Noroeste 0 -- -- 61
2019-11-28 09:00:00 10.5 33 Noroeste 58 Noroeste 0 -- -- 64
2019-11-28 08:00:00 10.1 36 Noroeste 61 Noroeste 0 -- -- 64
2019-11-28 07:00:00 9.9 42 Noroeste 60 Oeste 0 -- -- 65
2019-11-28 06:00:00 10.2 33 Noroeste 58 Oeste 0 -- -- 63
2019-11-28 05:00:00 10.3 32 Noroeste 55 Noroeste 0 -- -- 62
2019-11-28 04:00:00 10.5 30 Noroeste 57 Noroeste 0 -- -- 60
2019-11-28 03:00:00 9.6 26 Oeste 47 Oeste 0 -- -- 64
2019-11-28 02:00:00 9.7 16 Noroeste 27 Noroeste 0 -- -- 64
2019-11-28 01:00:00 10.1 13 Oeste 23 Oeste 0 -- -- 63
2019-11-28 00:00:00 10 15 Noroeste 27 Noroeste 0 -- -- 62
2019-11-27 23:00:00 11.1 17 Noroeste 27 Noroeste 0 -- -- 57
2019-11-27 22:00:00 11.4 15 Noroeste 31 Noroeste 0 -- -- 54
2019-11-27 21:00:00 11.4 23 Noroeste 40 Noroeste 0 -- -- 54
2019-11-27 20:00:00 11 22 Noroeste 45 Noroeste 0 -- -- 54
2019-11-27 19:00:00 11.4 20 Noroeste 46 Noroeste 0 -- -- 49
2019-11-27 18:00:00 11.2 18 Noroeste 32 Noroeste 0 -- -- 53
2019-11-27 17:00:00 12.1 17 Noroeste 41 Oeste 0 -- -- 48
2019-11-27 16:00:00 13.5 13 Sudoeste 49 Oeste 0 -- -- 46
2019-11-27 15:00:00 13.4 15 Oeste 47 Noroeste 0 -- -- 46
2019-11-27 14:00:00 13 23 Oeste 43 Oeste 0 -- -- 49
2019-11-27 06:00:00 -- -- -- -- -- -- -- -- --
2019-11-27 05:00:00 -- -- -- -- -- -- -- -- --
2019-11-27 04:00:00 -- -- -- -- -- -- -- -- --
2019-11-27 03:00:00 -- -- -- -- -- -- -- -- --
2019-11-27 02:00:00 11.8 11 Noroeste 18 Noroeste 0 -- -- 65
2019-11-27 01:00:00 10.9 4 Noroeste 10 Noroeste 0 -- -- 67
2019-11-27 00:00:00 10.9 10 Noroeste 13 Noroeste 0 -- -- 66
2019-11-26 23:00:00 10.2 9 Noroeste 12 Noroeste 0 -- -- 72
2019-11-26 22:00:00 9.8 8 Noroeste 17 Oeste 0 -- -- 77
2019-11-26 21:00:00 11 12 Noroeste 24 Oeste 0 -- -- 70
2019-11-26 20:00:00 10.5 19 Noroeste 27 Oeste 0 -- -- 70
2019-11-26 19:00:00 11 17 Noroeste 24 Oeste 0 -- -- 68
2019-11-26 18:00:00 12.2 15 Noroeste 28 Oeste 0 -- -- 65
2019-11-26 17:00:00 14.4 21 Oeste 34 Noroeste 0 -- -- 57
2019-11-26 16:00:00 14.8 22 Oeste 33 Oeste 0 -- -- 54
2019-11-26 15:00:00 15.3 21 Oeste 33 Oeste 0 -- -- 53
2019-11-26 14:00:00 15.5 20 Oeste 30 Oeste 0 -- -- 50
2019-11-26 13:00:00 14.8 19 Oeste 31 Noroeste 0 -- -- 56
2019-11-26 12:00:00 13.9 17 Oeste 41 Oeste 0 -- -- 60
2019-11-26 11:00:00 12.4 24 Oeste 40 Oeste 0 -- -- 65
2019-11-26 10:00:00 11 17 Oeste 26 Oeste 0 -- -- 70
2019-11-26 09:00:00 8.5 9 Noroeste 21 Oeste 0 -- -- 81
2019-11-26 08:00:00 6.7 4 Noroeste 14 Noroeste 0 -- -- 83
2019-11-26 07:00:00 7.1 2 Oeste 13 Oeste 0 -- -- 82
2019-11-26 06:00:00 8 2 Sudoeste 13 Sudoeste 0 -- -- 80
2019-11-26 05:00:00 8.6 8 Oeste 13 Oeste 0 -- -- 79
2019-11-26 04:00:00 8.6 6 Oeste 12 Noroeste 0 -- -- 80
2019-11-26 03:00:00 8.3 10 Noroeste 20 Noroeste 0 -- -- 80
2019-11-26 02:00:00 8.5 6 Noroeste 14 Noroeste 0 -- -- 79
2019-11-26 01:00:00 7.8 12 Noroeste 16 Oeste 0 -- -- 84
2019-11-26 00:00:00 6.6 10 Noroeste 13 Noroeste 0 -- -- 86
2019-11-25 23:00:00 6.1 6 Noroeste 9 Noroeste 0 -- -- 85
2019-11-25 22:00:00 7.6 7 Noroeste 12 Noroeste 0 -- -- 84
2019-11-25 21:00:00 7.4 7 Noroeste 15 Noroeste 0 -- -- 82
2019-11-25 20:00:00 8.9 5 Noroeste 10 Oeste 0 -- -- 79
2019-11-25 19:00:00 10.6 5 Noroeste 18 Oeste 0 -- -- 72
2019-11-25 18:00:00 10.8 14 Oeste 20 Oeste 0 -- -- 72
2019-11-25 17:00:00 12 8 Oeste 18 Noroeste 0 -- -- 64
2019-11-25 16:00:00 13.3 12 Noroeste 24 Oeste 0 -- -- 58
2019-11-25 15:00:00 15.6 11 Noroeste 31 Noroeste 0 -- -- 53
2019-11-25 14:00:00 14.1 16 Noroeste 31 Noroeste 0 -- -- 57
2019-11-25 13:00:00 14.1 9 Noroeste 36 Noroeste 0 -- -- 57
2019-11-25 12:00:00 13 20 Noroeste 40 Noroeste 0 -- -- 61
2019-11-25 11:00:00 12 14 Noroeste 45 Noroeste 0 -- -- 63
2019-11-25 10:00:00 10.4 30 Noroeste 48 Noroeste 0 -- -- 68
2019-11-25 09:00:00 9.7 26 Noroeste 51 Noroeste 0 -- -- 69
2019-11-25 08:00:00 8.6 23 Noroeste 51 Noroeste 0 -- -- 70
2019-11-25 07:00:00 8.9 36 Noroeste 53 Noroeste 0 -- -- 68
2019-11-25 06:00:00 8 33 Noroeste 53 Noroeste 0 -- -- 70
2019-11-25 05:00:00 7 22 Noroeste 42 Noroeste 0 -- -- 72
2019-11-25 04:00:00 7 25 Noroeste 44 Noroeste 0 -- -- 72
2019-11-25 03:00:00 7 19 Noroeste 28 Noroeste 0 -- -- 66
2019-11-25 02:00:00 7.2 14 Oeste 33 Oeste 0 -- -- 66
2019-11-25 01:00:00 6.8 20 Oeste 36 Noroeste 0 -- -- 68
2019-11-25 00:00:00 6.9 12 Oeste 26 Noroeste 0 -- -- 68
2019-11-24 23:00:00 7.1 16 Oeste 24 Oeste 0 -- -- 67
2019-11-24 22:00:00 7.1 10 Oeste 26 Noroeste 0 -- -- 67
2019-11-24 21:00:00 7.5 13 Oeste 23 Oeste 0 -- -- 66
2019-11-24 20:00:00 7.6 13 Oeste 27 Oeste 0 -- -- 66
2019-11-24 19:00:00 7.6 11 Oeste 29 Noroeste 0 -- -- 67
2019-11-24 18:00:00 8.1 15 Oeste 36 Noroeste 0 -- -- 66
2019-11-24 17:00:00 9.3 21 Noroeste 39 Noroeste 0 -- -- 62
2019-11-24 16:00:00 11 18 Noroeste 42 Noroeste 0 -- -- 55
2019-11-24 15:00:00 11.8 23 Noroeste 54 Noroeste 0 -- -- 53
2019-11-24 14:00:00 11.2 32 Noroeste 50 Noroeste 0 -- -- 54
2019-11-24 13:00:00 11 27 Noroeste 42 Noroeste 0 -- -- 50
2019-11-24 12:00:00 10.3 23 Noroeste 44 Noroeste 0 -- -- 54
2019-11-24 11:00:00 8.6 23 Noroeste 41 Noroeste 0 -- -- 60
2019-11-24 10:00:00 7.2 26 Noroeste 47 Noroeste 0 -- -- 65
2019-11-24 09:00:00 6 21 Noroeste 49 Noroeste 0 -- -- 69
2019-11-24 08:00:00 5.4 30 Noroeste 57 Noroeste 0 -- -- 71
2019-11-24 07:00:00 5.3 37 Noroeste 65 Noroeste 0 -- -- 73
2019-11-24 06:00:00 5.4 39 Noroeste 66 Noroeste 0 -- -- 74
2019-11-24 05:00:00 5.5 36 Noroeste 60 Noroeste 0 -- -- 74
2019-11-24 04:00:00 5.6 32 Noroeste 60 Noroeste 0 -- -- 74
2019-11-24 03:00:00 5.5 41 Noroeste 65 Noroeste 0 -- -- 74
2019-11-24 02:00:00 5.8 42 Noroeste 66 Noroeste 0 -- -- 74
2019-11-24 01:00:00 5.9 41 Noroeste 67 Noroeste 0 -- -- 73
2019-11-24 00:00:00 6.1 49 Noroeste 72 Noroeste 0 -- -- 71
2019-11-23 23:00:00 6.1 47 Noroeste 67 Noroeste 0 -- -- 71
2019-11-23 22:00:00 6.6 41 Noroeste 64 Noroeste 0 -- -- 68
2019-11-23 21:00:00 6.9 45 Noroeste 73 Noroeste 0 -- -- 67
2019-11-23 20:00:00 7 47 Noroeste 77 Noroeste 0 -- -- 67
2019-11-23 19:00:00 7.2 40 Noroeste 75 Oeste 0 -- -- 69
2019-11-23 18:00:00 7.2 48 Noroeste 80 Noroeste 0 -- -- 70
2019-11-23 17:00:00 7.6 42 Noroeste 83 Noroeste 0 -- -- 68
2019-11-23 16:00:00 8 50 Noroeste 84 Noroeste 0 -- -- 67
2019-11-23 15:00:00 8.1 51 Noroeste 87 Noroeste 0 -- -- 68
2019-11-23 14:00:00 8.2 62 Noroeste 87 Noroeste 0 -- -- 69
2019-11-23 13:00:00 8.3 45 Noroeste 88 Noroeste 0 -- -- 67
2019-11-23 12:00:00 8.4 45 Noroeste 76 Noroeste 0 -- -- 70
2019-11-23 11:00:00 9.1 32 Noroeste 54 Noroeste 0 -- -- 65
2019-11-23 10:00:00 8.6 27 Noroeste 54 Noroeste 0 -- -- 66
2019-11-23 09:00:00 8.1 30 Noroeste 44 Noroeste 0 -- -- 67
2019-11-23 08:00:00 7.8 26 Noroeste 36 Noroeste 0 -- -- 68
2019-11-23 07:00:00 7.2 12 Noroeste 41 Oeste 0 -- -- 77
2019-11-23 06:00:00 8.6 24 Oeste 38 Noroeste 0 -- -- 74
2019-11-23 05:00:00 7.4 12 Oeste 17 Oeste 0 -- -- 78
2019-11-23 04:00:00 7.6 12 Oeste 23 Oeste 0 -- -- 80
2019-11-23 03:00:00 8.4 17 Noroeste 38 Noroeste 0.2 -- -- 79
2019-11-23 02:00:00 9.5 14 Oeste 48 Oeste 0 -- -- 81
2019-11-23 01:00:00 10.9 21 Oeste 48 Oeste 0.8 -- -- 87
2019-11-23 00:00:00 11.1 24 Sudoeste 58 Oeste 6.8 -- -- 88
2019-11-22 23:00:00 11.2 20 Sudoeste 46 Sur 7.4 -- -- 88
2019-11-22 22:00:00 10.8 19 Sur 37 Sur 3.2 -- -- 88
2019-11-22 21:00:00 10.8 19 Sudoeste 36 Sudoeste 1.8 -- -- 87
2019-11-22 20:00:00 10.7 13 Sudoeste 37 Oeste 8.4 -- -- 88
2019-11-22 19:00:00 10.1 6 Sur 29 Sur 2.6 -- -- 88
2019-11-22 18:00:00 9.6 10 Sur 28 Sur 0.4 -- -- 87
2019-11-22 17:00:00 9.6 15 Sudoeste 28 Sudoeste 0 -- -- 85
2019-11-22 16:00:00 9.9 13 Sur 34 Sudoeste 0 -- -- 80
2019-11-22 15:00:00 10.1 14 Sudoeste 31 Sur 0 -- -- 77
2019-11-22 14:00:00 10.8 10 Sur 24 Sur 0 -- -- 77
2019-11-22 13:00:00 10.5 10 Sur 19 Sur 0 -- -- 82
2019-11-22 12:00:00 10 10 Sudeste 17 Sur 0 -- -- 87
2019-11-22 11:00:00 10.2 6 Sur 18 Sudoeste 0 -- -- 87
2019-11-22 10:00:00 8.8 5 Sudeste 13 Sudeste 0.2 -- -- 89
2019-11-22 09:00:00 7.8 0 Calma 8 Sudeste 1.6 -- -- 89
2019-11-22 08:00:00 7.4 5 Sudeste 8 Sudeste 0 -- -- 88
2019-11-22 07:00:00 7.3 0 Calma 7 Noroeste 0.2 -- -- 89
2019-11-22 06:00:00 6.3 4 Noroeste 6 Noroeste 0 -- -- 87
2019-11-22 05:00:00 5.5 5 Noroeste 8 Noroeste 0 -- -- 87
2019-11-22 04:00:00 3.9 7 Noroeste 12 Noroeste 0 -- -- 87
2019-11-22 03:00:00 3.8 9 Noroeste 10 Noroeste 0 -- -- 83
2019-11-22 02:00:00 4.6 8 Noroeste 10 Noroeste 0 -- -- 80
2019-11-22 01:00:00 5.6 6 Noroeste 10 Noroeste 0 -- -- 78
2019-11-22 00:00:00 5.2 7 Noroeste 10 Noroeste 0 -- -- 78
2019-11-21 23:00:00 4.4 6 Noroeste 11 Noroeste 0 -- -- 85
2019-11-21 22:00:00 5.1 10 Noroeste 14 Noroeste 0 -- -- 86
2019-11-21 21:00:00 5.5 9 Noroeste 14 Noroeste 0 -- -- 84
2019-11-21 20:00:00 5.8 8 Noroeste 12 Noroeste 0 -- -- 82
2019-11-21 19:00:00 4.5 8 Noroeste 11 Noroeste 0 -- -- 75
2019-11-21 18:00:00 5.4 4 Noroeste 15 Oeste 0 -- -- 69
2019-11-21 17:00:00 8.3 10 Oeste 28 Noroeste 0 -- -- 57
2019-11-21 16:00:00 9.8 18 Oeste 31 Noroeste 0 -- -- 53
2019-11-21 15:00:00 10.2 18 Oeste 34 Noroeste 0 -- -- 54
2019-11-21 14:00:00 10.8 24 Noroeste 39 Noroeste 0 -- -- 53
2019-11-21 13:00:00 9.6 13 Oeste 31 Oeste 0 -- -- 58
2019-11-21 12:00:00 8.5 14 Oeste 41 Noroeste 0 -- -- 64
2019-11-21 11:00:00 8.1 15 Oeste 32 Noroeste 0 -- -- 67
2019-11-21 10:00:00 7.7 18 Oeste 29 Oeste 0 -- -- 68
2019-11-21 09:00:00 6.3 8 Oeste 13 Sudoeste 0 -- -- 77
2019-11-21 08:00:00 4 6 Noroeste 11 Oeste 0 -- -- 83
2019-11-21 07:00:00 4.4 5 Noroeste 9 Noroeste 0 -- -- 82
2019-11-21 06:00:00 5.4 5 Oeste 9 Oeste 0 -- -- 81
2019-11-21 05:00:00 4.7 4 Noroeste 10 Noroeste 0 -- -- 88
2019-11-21 04:00:00 3.3 6 Noroeste 10 Noroeste 0 -- -- 90
2019-11-21 03:00:00 1.6 7 Noroeste 9 Noroeste 0 -- -- 90
2019-11-21 02:00:00 0.7 6 Noroeste 10 Noroeste 0 -- -- 89
2019-11-21 01:00:00 1.4 8 Noroeste 13 Noroeste 0 -- -- 88
2019-11-21 00:00:00 1.6 9 Noroeste 11 Noroeste 0 -- -- 89
2019-11-20 23:00:00 1.6 5 Noroeste 11 Noroeste 0 -- -- 89
2019-11-20 22:00:00 1.4 8 Noroeste 11 Noroeste 0 -- -- 87
2019-11-20 21:00:00 2 6 Noroeste 10 Noroeste 0 -- -- 86
2019-11-20 20:00:00 2.2 8 Noroeste 10 Noroeste 0 -- -- 86
2019-11-20 19:00:00 3.4 6 Noroeste 8 Noroeste 0 -- -- 83
2019-11-20 18:00:00 6 4 Sudoeste 14 Sur 0 -- -- 77
2019-11-20 17:00:00 7.9 8 Sur 14 Sudoeste 0 -- -- 73
2019-11-20 16:00:00 8.2 10 Oeste 16 Sudoeste 0 -- -- 68
2019-11-20 15:00:00 8.6 13 Oeste 21 Sudoeste 0 -- -- 64
2019-11-20 14:00:00 9.2 11 Oeste 24 Oeste 0 -- -- 60
2019-11-20 13:00:00 9.1 11 Oeste 23 Oeste 0 -- -- 63
2019-11-20 12:00:00 8.4 12 Oeste 26 Oeste 0 -- -- 67
2019-11-20 11:00:00 7.6 10 Oeste 20 Sudoeste 0 -- -- 71
2019-11-20 10:00:00 6 9 Noroeste 13 Noroeste 0 -- -- 74
2019-11-20 09:00:00 3 8 Noroeste 10 Noroeste 0 -- -- 86
2019-11-20 08:00:00 0.8 7 Noroeste 9 Noroeste 0 -- -- 87
2019-11-20 07:00:00 0.2 6 Noroeste 9 Noroeste 0 -- -- 86
2019-11-20 06:00:00 0.1 6 Noroeste 9 Noroeste 0 -- -- 87
2019-11-20 05:00:00 0.5 3 Noroeste 9 Noroeste 0 -- -- 83
2019-11-20 04:00:00 2.6 6 Noroeste 11 Noroeste 0 -- -- 81
2019-11-20 03:00:00 0.5 9 Noroeste 13 Noroeste 0 -- -- 83
2019-11-20 02:00:00 -0.4 8 Noroeste 13 Noroeste 0 -- -- 82
2019-11-20 01:00:00 -0.9 8 Noroeste 10 Noroeste 0 -- -- 85
2019-11-20 00:00:00 -0.8 6 Noroeste 9 Noroeste 0 -- -- 84
2019-11-19 23:00:00 -0.6 5 Noroeste 11 Noroeste 0 -- -- 85
2019-11-19 22:00:00 -0.3 8 Noroeste 10 Noroeste 0 -- -- 81
2019-11-19 21:00:00 0.9 6 Noroeste 8 Noroeste 0 -- -- 75
2019-11-19 20:00:00 0.7 4 Noroeste 8 Noroeste 0 -- -- 68
2019-11-19 19:00:00 2 3 Noroeste 10 Noroeste 0 -- -- 65
2019-11-19 18:00:00 3.9 3 Noroeste 10 Noroeste 0 -- -- 65
2019-11-19 17:00:00 8.8 5 Sur 12 Sur 0 -- -- 49
2019-11-19 16:00:00 11 7 Sudeste 14 Sudeste 0 -- -- 40
2019-11-19 15:00:00 11.7 7 Sudeste 16 Sudeste 0 -- -- 37
2019-11-19 14:00:00 10.2 12 Sudeste 18 Sudeste 0 -- -- 41
2019-11-19 13:00:00 10.2 9 Oeste 17 Oeste 0 -- -- 34
2019-11-19 12:00:00 8.2 9 Noroeste 21 Oeste 0 -- -- 40
2019-11-19 11:00:00 7.2 9 Noroeste 26 Oeste 0 -- -- 47
2019-11-19 10:00:00 6 6 Oeste 17 Oeste 0 -- -- 45
2019-11-19 09:00:00 4.7 12 Oeste 22 Oeste 0 -- -- 47
2019-11-19 08:00:00 2.7 12 Oeste 20 Oeste 0 -- -- 56
2019-11-19 07:00:00 2.2 6 Oeste 25 Oeste 0 -- -- 58
2019-11-19 06:00:00 2.2 14 Oeste 30 Oeste 0 -- -- 61
2019-11-19 05:00:00 2.1 15 Oeste 22 Oeste 0 -- -- 65
2019-11-19 04:00:00 1.9 4 Oeste 12 Sudoeste 0 -- -- 65
2019-11-19 03:00:00 2.5 6 Noroeste 15 Noroeste 0 -- -- 64
2019-11-19 02:00:00 2.3 7 Oeste 19 Oeste 0 -- -- 66
2019-11-19 01:00:00 2.5 6 Oeste 21 Sudoeste 0 -- -- 67